createdAt,value
2019-02-18T00:00:13.315Z,7.10
2019-02-18T00:01:13.260Z,7.00
2019-02-18T00:02:13.182Z,7.20
2019-02-18T00:03:13.113Z,7.20
2019-02-18T00:04:13.045Z,7.30
2019-02-18T00:05:12.978Z,6.80
2019-02-18T00:06:12.908Z,6.90
2019-02-18T00:07:14.702Z,7.50
2019-02-18T00:08:12.771Z,7.10
2019-02-18T00:09:12.722Z,7.30
2019-02-18T00:10:12.636Z,6.70
2019-02-18T00:11:12.577Z,7.00
2019-02-18T00:12:12.501Z,7.10
2019-02-18T00:13:12.431Z,7.10
2019-02-18T00:14:12.371Z,7.40
2019-02-18T00:15:12.293Z,6.80
2019-02-18T00:16:12.228Z,7.30
2019-02-18T00:17:12.167Z,7.10
2019-02-18T00:18:12.090Z,6.90
2019-02-18T00:19:12.032Z,7.80
2019-02-18T00:20:11.960Z,7.10
2019-02-18T00:21:11.938Z,7.00
2019-02-18T00:22:11.826Z,6.90
2019-02-18T00:23:11.757Z,7.10
2019-02-18T00:24:11.684Z,7.30
2019-02-18T00:25:11.615Z,7.20
2019-02-18T00:26:11.545Z,6.60
2019-02-18T00:27:11.481Z,7.20
2019-02-18T00:28:11.417Z,7.00
2019-02-18T00:29:11.350Z,7.20
2019-02-18T00:30:11.298Z,7.00
2019-02-18T00:31:11.226Z,7.10
2019-02-18T00:32:11.140Z,6.70
2019-02-18T00:33:11.073Z,7.10
2019-02-18T00:34:11.004Z,6.40
2019-02-18T00:35:10.935Z,6.90
2019-02-18T00:36:10.867Z,6.90
2019-02-18T00:37:10.801Z,7.10
2019-02-18T00:38:10.748Z,7.00
2019-02-18T00:39:10.659Z,7.60
2019-02-18T00:40:10.590Z,6.60
2019-02-18T00:41:10.526Z,6.90
2019-02-18T00:42:10.455Z,6.90
2019-02-18T00:43:10.389Z,7.10
2019-02-18T00:44:10.330Z,7.10
2019-02-18T00:45:10.261Z,6.90
2019-02-18T00:46:10.199Z,7.30
2019-02-18T00:47:10.120Z,6.80
2019-02-18T00:48:10.049Z,7.20
2019-02-18T00:49:09.982Z,6.70
2019-02-18T00:50:09.929Z,7.40
2019-02-18T00:51:09.842Z,7.20
2019-02-18T00:52:09.837Z,7.00
2019-02-18T00:53:09.711Z,6.10
2019-02-18T00:54:09.653Z,6.80
2019-02-18T00:55:09.565Z,7.40
2019-02-18T00:56:09.502Z,6.70
2019-02-18T00:57:09.433Z,7.20
2019-02-18T00:58:09.367Z,6.90
2019-02-18T00:59:09.307Z,7.10
2019-02-18T01:00:09.249Z,7.00
2019-02-18T01:01:09.175Z,6.40
2019-02-18T01:02:09.093Z,7.00
2019-02-18T01:03:09.026Z,6.70
2019-02-18T01:04:08.956Z,6.80
2019-02-18T01:05:08.894Z,6.70
2019-02-18T01:06:08.819Z,6.40
2019-02-18T01:07:08.753Z,6.90
2019-02-18T01:08:08.683Z,6.60
2019-02-18T01:09:08.622Z,6.70
2019-02-18T01:10:08.544Z,6.70
2019-02-18T01:11:08.481Z,6.50
2019-02-18T01:12:08.409Z,6.30
2019-02-18T01:13:08.354Z,6.20
2019-02-18T01:14:08.281Z,6.80
2019-02-18T01:15:08.264Z,6.60
2019-02-18T01:16:08.142Z,7.00
2019-02-18T01:17:08.074Z,6.20
2019-02-18T01:18:08.004Z,6.60
2019-02-18T01:19:07.933Z,7.00
2019-02-18T01:20:07.865Z,7.20
2019-02-18T01:21:07.799Z,6.30
2019-02-18T01:22:07.731Z,6.30
2019-02-18T01:23:07.687Z,6.60
2019-02-18T01:24:07.600Z,6.90
2019-02-18T01:25:07.530Z,6.50
2019-02-18T01:26:07.455Z,6.60
2019-02-18T01:27:07.388Z,6.70
2019-02-18T01:28:07.321Z,7.40
2019-02-18T01:29:07.252Z,7.10
2019-02-18T01:30:07.182Z,7.10
2019-02-18T01:31:07.114Z,6.80
2019-02-18T01:32:07.047Z,7.30
2019-02-18T01:33:06.982Z,7.60
2019-02-18T01:34:06.904Z,7.20
2019-02-18T01:35:06.844Z,7.20
2019-02-18T01:36:06.775Z,6.60
2019-02-18T01:37:06.703Z,6.80
2019-02-18T01:38:06.637Z,6.40
2019-02-18T01:39:06.565Z,6.30
2019-02-18T01:40:06.498Z,6.50
2019-02-18T01:41:06.430Z,6.40
2019-02-18T01:42:06.364Z,6.60
2019-02-18T01:43:06.299Z,6.50
2019-02-18T01:44:06.221Z,6.50
2019-02-18T01:45:06.158Z,6.20
2019-02-18T01:46:06.093Z,6.70
2019-02-18T01:47:06.022Z,6.20
2019-02-18T01:48:05.960Z,6.30
2019-02-18T01:49:05.896Z,6.20
2019-02-18T01:50:05.828Z,6.60
2019-02-18T01:51:05.752Z,6.10
2019-02-18T01:52:05.681Z,6.50
2019-02-18T01:53:05.613Z,6.70
2019-02-18T01:54:05.543Z,6.10
2019-02-18T01:55:05.476Z,6.00
2019-02-18T01:56:05.406Z,6.10
2019-02-18T01:57:05.339Z,6.70
2019-02-18T01:58:05.277Z,6.10
2019-02-18T01:59:05.201Z,6.50
2019-02-18T02:00:05.135Z,7.00
2019-02-18T02:01:05.064Z,6.20
2019-02-18T02:02:04.994Z,6.60
2019-02-18T02:03:04.926Z,6.10
2019-02-18T02:04:04.858Z,6.70
2019-02-18T02:05:04.789Z,6.80
2019-02-18T02:06:04.724Z,6.90
2019-02-18T02:07:04.654Z,6.30
2019-02-18T02:08:04.598Z,7.20
2019-02-18T02:09:04.515Z,6.60
2019-02-18T02:10:04.448Z,6.20
2019-02-18T02:11:04.380Z,6.30
2019-02-18T02:12:04.309Z,6.90
2019-02-18T02:13:04.242Z,6.70
2019-02-18T02:14:04.173Z,6.50
2019-02-18T02:15:04.106Z,6.60
2019-02-18T02:16:04.038Z,6.50
2019-02-18T02:17:03.966Z,7.00
2019-02-18T02:18:03.898Z,6.30
2019-02-18T02:19:03.829Z,6.70
2019-02-18T02:20:03.765Z,6.20
2019-02-18T02:21:03.693Z,6.30
2019-02-18T02:22:03.624Z,6.40
2019-02-18T02:23:03.556Z,6.70
2019-02-18T02:24:03.487Z,6.50
2019-02-18T02:25:03.414Z,6.70
2019-02-18T02:26:03.353Z,6.60
2019-02-18T02:27:03.285Z,6.40
2019-02-18T02:28:03.217Z,6.20
2019-02-18T02:29:03.151Z,6.50
2019-02-18T02:30:03.078Z,6.40
2019-02-18T02:31:03.018Z,6.00
2019-02-18T02:32:02.949Z,6.50
2019-02-18T02:33:02.870Z,6.60
2019-02-18T02:34:02.804Z,6.40
2019-02-18T02:35:02.736Z,6.20
2019-02-18T02:36:02.681Z,6.60
2019-02-18T02:37:02.598Z,6.20
2019-02-18T02:38:07.527Z,6.00
2019-02-18T02:39:02.474Z,6.50
2019-02-18T02:40:02.403Z,5.80
2019-02-18T02:41:02.318Z,5.90
2019-02-18T02:42:02.320Z,6.40
2019-02-18T02:43:02.188Z,5.70
2019-02-18T02:44:02.118Z,6.40
2019-02-18T02:45:02.079Z,6.00
2019-02-18T02:46:01.978Z,5.50
2019-02-18T02:47:01.909Z,5.80
2019-02-18T02:48:01.845Z,5.60
2019-02-18T02:49:01.784Z,6.30
2019-02-18T02:50:01.700Z,5.90
2019-02-18T02:51:01.653Z,6.30
2019-02-18T02:52:01.570Z,5.90
2019-02-18T02:53:01.498Z,5.30
2019-02-18T02:54:01.429Z,6.10
2019-02-18T02:55:01.381Z,5.70
2019-02-18T02:56:01.291Z,5.60
2019-02-18T02:57:01.226Z,5.50
2019-02-18T02:58:01.157Z,5.90
2019-02-18T02:59:01.102Z,5.50
2019-02-18T03:00:01.014Z,5.50
2019-02-18T03:01:00.975Z,5.80
2019-02-18T03:02:00.891Z,5.70
2019-02-18T03:03:00.811Z,5.90
2019-02-18T03:04:00.746Z,5.20
2019-02-18T03:05:00.677Z,5.80
2019-02-18T03:06:00.603Z,5.50
2019-02-18T03:07:00.546Z,5.50
2019-02-18T03:08:00.480Z,5.70
2019-02-18T03:09:00.412Z,5.20
2019-02-18T03:10:00.394Z,5.20
2019-02-18T03:11:00.265Z,5.70
2019-02-18T03:12:00.194Z,5.40
2019-02-18T03:13:00.143Z,5.70
2019-02-18T03:14:00.079Z,5.30
2019-02-18T03:14:59.991Z,5.50
2019-02-18T03:15:59.919Z,5.70
2019-02-18T03:16:59.860Z,4.90
2019-02-18T03:17:59.783Z,5.20
2019-02-18T03:18:59.715Z,5.50
2019-02-18T03:19:59.639Z,4.90
2019-02-18T03:20:59.586Z,4.70
2019-02-18T03:21:59.506Z,5.30
2019-02-18T03:22:59.437Z,4.80
2019-02-18T03:23:59.367Z,4.80
2019-02-18T03:24:59.321Z,5.00
2019-02-18T03:25:59.230Z,5.10
2019-02-18T03:26:59.157Z,4.80
2019-02-18T03:27:59.104Z,4.50
2019-02-18T03:28:59.021Z,5.10
2019-02-18T03:29:58.965Z,4.80
2019-02-18T03:30:58.929Z,5.10
2019-02-18T03:31:58.834Z,5.10
2019-02-18T03:32:58.756Z,4.50
2019-02-18T03:33:58.682Z,4.80
2019-02-18T03:35:00.545Z,5.10
2019-02-18T03:35:58.546Z,5.10
2019-02-18T03:36:58.491Z,4.70
2019-02-18T03:37:58.403Z,4.80
2019-02-18T03:38:58.339Z,4.30
2019-02-18T03:39:58.268Z,4.90
2019-02-18T03:41:03.183Z,4.80
2019-02-18T03:41:58.128Z,4.90
2019-02-18T03:42:58.069Z,4.50
2019-02-18T03:43:58.002Z,4.40
2019-02-18T03:44:57.923Z,4.30
2019-02-18T03:45:57.871Z,4.20
2019-02-18T03:46:57.789Z,4.10
2019-02-18T03:47:57.713Z,4.10
2019-02-18T03:48:57.664Z,4.10
2019-02-18T03:49:57.575Z,4.40
2019-02-18T03:50:57.515Z,3.80
2019-02-18T03:51:57.438Z,4.30
2019-02-18T03:52:57.381Z,4.30
2019-02-18T03:53:57.312Z,4.30
2019-02-18T03:54:57.240Z,4.60
2019-02-18T03:55:57.165Z,4.20
2019-02-18T03:56:57.180Z,4.90
2019-02-18T03:57:57.027Z,4.10
2019-02-18T03:58:56.978Z,4.20
2019-02-18T03:59:56.902Z,3.80
2019-02-18T04:00:56.825Z,4.10
2019-02-18T04:01:56.754Z,4.40
2019-02-18T04:02:56.692Z,4.30
2019-02-18T04:03:56.622Z,4.20
2019-02-18T04:04:56.547Z,4.10
2019-02-18T04:05:56.478Z,4.20
2019-02-18T04:06:56.408Z,4.40
2019-02-18T04:07:56.342Z,4.50
2019-02-18T04:08:56.269Z,3.90
2019-02-18T04:09:56.214Z,4.20
2019-02-18T04:10:56.134Z,4.10
2019-02-18T04:11:56.066Z,4.10
2019-02-18T04:12:55.992Z,4.50
2019-02-18T04:13:55.930Z,4.20
2019-02-18T04:14:55.859Z,4.60
2019-02-18T04:15:55.797Z,4.40
2019-02-18T04:16:55.717Z,4.40
2019-02-18T04:17:55.663Z,4.80
2019-02-18T04:18:55.583Z,4.50
2019-02-18T04:19:55.519Z,4.90
2019-02-18T04:20:55.470Z,5.00
2019-02-18T04:21:55.402Z,4.30
2019-02-18T04:22:55.329Z,4.40
2019-02-18T04:23:55.239Z,4.80
2019-02-18T04:24:55.182Z,4.50
2019-02-18T04:25:55.113Z,4.40
2019-02-18T04:26:55.037Z,4.40
2019-02-18T04:27:54.963Z,4.30
2019-02-18T04:28:54.893Z,4.10
2019-02-18T04:29:54.826Z,4.00
2019-02-18T04:30:54.767Z,4.10
2019-02-18T04:31:54.686Z,4.30
2019-02-18T04:32:54.618Z,4.20
2019-02-18T04:33:54.551Z,4.10
2019-02-18T04:34:54.490Z,4.10
2019-02-18T04:35:54.408Z,4.40
2019-02-18T04:36:54.345Z,3.90
2019-02-18T04:37:54.272Z,4.30
2019-02-18T04:38:54.548Z,4.20
2019-02-18T04:39:54.133Z,4.00
2019-02-18T04:40:54.077Z,4.30
2019-02-18T04:41:53.999Z,4.20
2019-02-18T04:42:53.966Z,4.30
2019-02-18T04:43:53.856Z,4.30
2019-02-18T04:44:53.791Z,3.50
2019-02-18T04:45:53.746Z,4.00
2019-02-18T04:46:53.653Z,4.10
2019-02-18T04:47:53.594Z,3.90
2019-02-18T04:48:53.516Z,4.30
2019-02-18T04:49:53.468Z,4.10
2019-02-18T04:50:53.386Z,4.10
2019-02-18T04:51:53.316Z,4.30
2019-02-18T04:52:53.251Z,4.10
2019-02-18T04:53:53.194Z,4.20
2019-02-18T04:54:53.102Z,4.10
2019-02-18T04:55:53.032Z,4.10
2019-02-18T04:56:52.965Z,4.40
2019-02-18T04:57:52.908Z,4.30
2019-02-18T04:58:52.827Z,4.50
2019-02-18T04:59:52.756Z,4.30
2019-02-18T05:00:52.695Z,4.10
2019-02-18T05:01:52.623Z,3.80
2019-02-18T05:02:52.549Z,4.30
2019-02-18T05:03:52.487Z,4.60
2019-02-18T05:04:52.407Z,4.50
2019-02-18T05:05:52.357Z,4.40
2019-02-18T05:06:52.272Z,4.10
2019-02-18T05:07:52.211Z,4.30
2019-02-18T05:08:52.140Z,4.30
2019-02-18T05:09:52.072Z,4.50
2019-02-18T05:10:51.994Z,4.20
2019-02-18T05:11:51.930Z,4.90
2019-02-18T05:12:51.859Z,4.40
2019-02-18T05:13:51.790Z,4.00
2019-02-18T05:14:51.723Z,4.30
2019-02-18T05:15:51.651Z,4.60
2019-02-18T05:16:51.586Z,4.20
2019-02-18T05:17:51.525Z,4.30
2019-02-18T05:18:51.449Z,4.40
2019-02-18T05:19:51.386Z,5.00
2019-02-18T05:20:51.304Z,4.20
2019-02-18T05:21:51.238Z,4.40
2019-02-18T05:22:51.183Z,4.80
2019-02-18T05:23:51.125Z,4.30
2019-02-18T05:24:51.049Z,4.30
2019-02-18T05:25:50.959Z,4.40
2019-02-18T05:26:50.894Z,4.50
2019-02-18T05:27:50.824Z,4.80
2019-02-18T05:28:50.770Z,4.70
2019-02-18T05:29:50.683Z,4.30
2019-02-18T05:30:50.617Z,4.20
2019-02-18T05:31:50.548Z,4.70
2019-02-18T05:32:50.488Z,4.10
2019-02-18T05:33:50.405Z,4.60
2019-02-18T05:34:50.344Z,4.80
2019-02-18T05:35:50.278Z,4.90
2019-02-18T05:36:50.205Z,4.90
2019-02-18T05:37:50.144Z,4.90
2019-02-18T05:38:50.064Z,5.10
2019-02-18T05:39:49.993Z,4.60
2019-02-18T05:40:49.959Z,4.90
2019-02-18T05:41:49.859Z,4.50
2019-02-18T05:42:49.790Z,4.40
2019-02-18T05:43:49.720Z,5.10
2019-02-18T05:44:49.653Z,4.90
2019-02-18T05:45:49.582Z,5.00
2019-02-18T05:46:49.510Z,5.00
2019-02-18T05:47:49.439Z,4.50
2019-02-18T05:48:49.384Z,4.80
2019-02-18T05:49:49.319Z,5.00
2019-02-18T05:50:49.296Z,5.30
2019-02-18T05:51:49.163Z,5.10
2019-02-18T05:52:49.095Z,5.10
2019-02-18T05:53:49.024Z,5.30
2019-02-18T05:54:48.960Z,5.50
2019-02-18T05:55:48.886Z,4.90
2019-02-18T05:56:48.820Z,4.80
2019-02-18T05:57:48.760Z,4.90
2019-02-18T05:58:48.690Z,5.00
2019-02-18T05:59:48.633Z,5.40
2019-02-18T06:00:48.547Z,5.60
2019-02-18T06:01:48.476Z,4.50
2019-02-18T06:02:48.409Z,5.10
2019-02-18T06:03:48.368Z,5.00
2019-02-18T06:04:48.262Z,4.90
2019-02-18T06:05:48.191Z,4.80
2019-02-18T06:06:48.136Z,4.80
2019-02-18T06:07:48.070Z,4.80
2019-02-18T06:08:48.003Z,4.40
2019-02-18T06:09:47.934Z,5.00
2019-02-18T06:10:47.848Z,4.80
2019-02-18T06:11:47.786Z,4.70
2019-02-18T06:12:47.708Z,5.00
2019-02-18T06:13:47.643Z,4.60
2019-02-18T06:14:47.580Z,5.00
2019-02-18T06:15:47.500Z,5.50
2019-02-18T06:16:47.433Z,5.40
2019-02-18T06:17:47.361Z,5.40
2019-02-18T06:18:47.295Z,5.90
2019-02-18T06:19:47.241Z,5.20
2019-02-18T06:20:47.156Z,5.20
2019-02-18T06:21:47.084Z,5.30
2019-02-18T06:22:47.021Z,4.70
2019-02-18T06:23:46.964Z,5.40
2019-02-18T06:24:46.874Z,5.20
2019-02-18T06:25:46.806Z,5.50
2019-02-18T06:26:46.742Z,5.20
2019-02-18T06:27:46.690Z,6.00
2019-02-18T06:28:46.594Z,5.50
2019-02-18T06:29:46.527Z,5.50
2019-02-18T06:30:46.460Z,5.50
2019-02-18T06:31:46.388Z,5.50
2019-02-18T06:32:46.350Z,4.50
2019-02-18T06:33:46.267Z,5.00
2019-02-18T06:34:46.185Z,5.00
2019-02-18T06:35:46.118Z,5.10
2019-02-18T06:36:46.044Z,5.20
2019-02-18T06:37:45.987Z,5.50
2019-02-18T06:38:45.906Z,4.90
2019-02-18T06:39:45.843Z,5.10
2019-02-18T06:40:45.801Z,5.60
2019-02-18T06:41:45.710Z,5.40
2019-02-18T06:42:45.629Z,5.20
2019-02-18T06:43:45.560Z,5.60
2019-02-18T06:44:45.481Z,4.90
2019-02-18T06:45:45.419Z,6.30
2019-02-18T06:46:45.349Z,6.10
2019-02-18T06:47:45.290Z,6.30
2019-02-18T06:48:45.215Z,6.50
2019-02-18T06:49:45.136Z,6.00
2019-02-18T06:50:45.070Z,6.00
2019-02-18T06:51:44.999Z,6.00
2019-02-18T06:52:44.936Z,5.90
2019-02-18T06:53:44.876Z,5.60
2019-02-18T06:54:44.825Z,6.00
2019-02-18T06:55:44.723Z,5.90
2019-02-18T06:56:44.674Z,5.80
2019-02-18T06:57:44.586Z,5.90
2019-02-18T06:58:44.517Z,5.50
2019-02-18T06:59:44.445Z,5.50
2019-02-18T07:00:44.379Z,5.90
2019-02-18T07:01:44.319Z,6.40
2019-02-18T07:02:44.246Z,5.60
2019-02-18T07:03:44.171Z,6.10
2019-02-18T07:04:44.102Z,6.10
2019-02-18T07:05:44.031Z,5.80
2019-02-18T07:06:43.972Z,5.70
2019-02-18T07:07:43.895Z,5.40
2019-02-18T07:08:43.823Z,5.60
2019-02-18T07:09:50.835Z,5.50
2019-02-18T07:10:43.689Z,5.90
2019-02-18T07:11:43.638Z,5.40
2019-02-18T07:12:43.546Z,5.60
2019-02-18T07:13:43.486Z,5.50
2019-02-18T07:14:43.420Z,5.50
2019-02-18T07:15:43.339Z,5.50
2019-02-18T07:16:43.283Z,5.30
2019-02-18T07:17:43.205Z,5.90
2019-02-18T07:18:43.135Z,5.20
2019-02-18T07:19:43.061Z,5.30
2019-02-18T07:20:42.993Z,5.80
2019-02-18T07:21:42.925Z,5.80
2019-02-18T07:22:42.858Z,5.60
2019-02-18T07:23:42.783Z,5.80
2019-02-18T07:24:42.714Z,5.90
2019-02-18T07:25:42.649Z,5.60
2019-02-18T07:26:42.582Z,5.90
2019-02-18T07:27:42.514Z,5.70
2019-02-18T07:28:42.441Z,6.30
2019-02-18T07:29:42.373Z,5.60
2019-02-18T07:30:42.309Z,6.00
2019-02-18T07:31:42.239Z,6.10
2019-02-18T07:32:42.167Z,5.70
2019-02-18T07:33:42.110Z,5.50
2019-02-18T07:34:42.028Z,6.20
2019-02-18T07:35:41.961Z,6.60
2019-02-18T07:36:41.907Z,6.70
2019-02-18T07:37:41.831Z,6.70
2019-02-18T07:38:41.753Z,7.00
2019-02-18T07:39:41.693Z,7.10
2019-02-18T07:40:41.633Z,7.20
2019-02-18T07:41:41.568Z,6.60
2019-02-18T07:42:41.478Z,6.50
2019-02-18T07:43:41.414Z,6.90
2019-02-18T07:44:41.341Z,6.30
2019-02-18T07:45:41.273Z,6.60
2019-02-18T07:46:41.201Z,6.40
2019-02-18T07:47:41.135Z,6.10
2019-02-18T07:48:41.065Z,6.70
2019-02-18T07:49:40.997Z,5.90
2019-02-18T07:50:40.929Z,5.60
2019-02-18T07:51:40.860Z,5.80
2019-02-18T07:52:40.792Z,5.50
2019-02-18T07:53:40.722Z,5.00
2019-02-18T07:54:40.672Z,5.40
2019-02-18T07:55:40.594Z,5.00
2019-02-18T07:56:40.528Z,4.50
2019-02-18T07:57:40.449Z,5.00
2019-02-18T07:58:40.382Z,4.70
2019-02-18T07:59:42.741Z,4.80
2019-02-18T08:00:40.255Z,4.80
2019-02-18T08:01:40.204Z,4.60
2019-02-18T08:02:40.112Z,5.00
2019-02-18T08:03:40.039Z,4.80
2019-02-18T08:04:39.968Z,4.90
2019-02-18T08:05:39.896Z,5.00
2019-02-18T08:06:39.835Z,5.00
2019-02-18T08:07:39.764Z,4.70
2019-02-18T08:08:39.702Z,5.50
2019-02-18T08:09:39.639Z,4.90
2019-02-18T08:10:39.561Z,5.00
2019-02-18T08:11:39.500Z,5.30
2019-02-18T08:12:39.424Z,4.40
2019-02-18T08:13:39.357Z,4.70
2019-02-18T08:14:39.298Z,4.70
2019-02-18T08:15:39.219Z,5.20
2019-02-18T08:16:39.152Z,4.80
2019-02-18T08:17:39.078Z,4.90
2019-02-18T08:18:39.016Z,5.30
2019-02-18T08:19:38.944Z,4.60
2019-02-18T08:20:38.881Z,5.00
2019-02-18T08:21:38.815Z,4.70
2019-02-18T08:22:38.742Z,5.00
2019-02-18T08:23:38.680Z,4.70
2019-02-18T08:24:38.608Z,4.90
2019-02-18T08:25:38.539Z,4.80
2019-02-18T08:26:38.470Z,4.70
2019-02-18T08:27:38.410Z,5.10
2019-02-18T08:28:38.336Z,5.00
2019-02-18T08:29:38.268Z,4.80
2019-02-18T08:30:38.207Z,4.90
2019-02-18T08:31:38.128Z,4.60
2019-02-18T08:32:38.066Z,4.70
2019-02-18T08:33:38.004Z,4.90
2019-02-18T08:34:37.927Z,4.80
2019-02-18T08:35:37.861Z,4.50
2019-02-18T08:36:37.799Z,4.30
2019-02-18T08:37:37.725Z,4.20
2019-02-18T08:38:37.655Z,4.50
2019-02-18T08:39:37.590Z,4.40
2019-02-18T08:40:37.529Z,5.10
2019-02-18T08:41:37.455Z,4.20
2019-02-18T08:42:37.386Z,4.50
2019-02-18T08:43:37.320Z,4.80
2019-02-18T08:44:37.254Z,4.80
2019-02-18T08:45:37.187Z,4.30
2019-02-18T08:46:37.123Z,4.70
2019-02-18T08:47:37.050Z,4.40
2019-02-18T08:48:36.986Z,4.20
2019-02-18T08:49:36.912Z,4.50
2019-02-18T08:50:36.848Z,4.40
2019-02-18T08:51:36.787Z,4.60
2019-02-18T08:52:36.725Z,4.20
2019-02-18T08:53:36.662Z,4.90
2019-02-18T08:54:36.583Z,4.50
2019-02-18T08:55:36.517Z,4.50
2019-02-18T08:56:36.452Z,5.30
2019-02-18T08:57:36.375Z,4.70
2019-02-18T08:58:36.311Z,4.60
2019-02-18T08:59:36.278Z,4.90
2019-02-18T09:00:36.176Z,4.60
2019-02-18T09:01:36.109Z,5.30
2019-02-18T09:02:36.041Z,5.00
2019-02-18T09:03:35.980Z,4.40
2019-02-18T09:04:35.903Z,5.30
2019-02-18T09:05:35.841Z,4.80
2019-02-18T09:06:35.775Z,5.10
2019-02-18T09:07:35.702Z,5.30
2019-02-18T09:08:35.656Z,4.70
2019-02-18T09:09:35.573Z,4.50
2019-02-18T09:10:35.516Z,5.10
2019-02-18T09:11:35.442Z,5.00
2019-02-18T09:12:35.372Z,4.90
2019-02-18T09:13:35.305Z,4.70
2019-02-18T09:14:35.239Z,5.00
2019-02-18T09:15:35.171Z,4.50
2019-02-18T09:16:35.105Z,5.00
2019-02-18T09:17:35.040Z,4.50
2019-02-18T09:18:34.975Z,4.60
2019-02-18T09:19:34.906Z,4.30
2019-02-18T09:20:34.845Z,4.50
2019-02-18T09:21:34.780Z,4.80
2019-02-18T09:22:34.707Z,4.80
2019-02-18T09:23:34.639Z,4.40
2019-02-18T09:24:34.573Z,4.70
2019-02-18T09:25:34.507Z,4.30
2019-02-18T09:26:34.451Z,4.50
2019-02-18T09:27:34.378Z,4.50
2019-02-18T09:28:34.311Z,4.50
2019-02-18T09:29:34.241Z,4.30
2019-02-18T09:30:34.178Z,4.20
2019-02-18T09:31:34.110Z,4.50
2019-02-18T09:32:34.043Z,4.50
2019-02-18T09:33:33.978Z,4.30
2019-02-18T09:34:33.908Z,4.30
2019-02-18T09:35:33.851Z,4.00
2019-02-18T09:36:33.777Z,4.20
2019-02-18T09:37:33.728Z,4.80
2019-02-18T09:38:33.647Z,3.80
2019-02-18T09:39:33.581Z,4.00
2019-02-18T09:40:43.982Z,3.40
2019-02-18T09:41:33.458Z,3.60
2019-02-18T09:42:33.383Z,3.20
2019-02-18T09:43:33.313Z,3.60
2019-02-18T09:44:33.253Z,3.30
2019-02-18T09:45:33.186Z,3.30
2019-02-18T09:46:33.119Z,3.40
2019-02-18T09:47:33.055Z,3.50
2019-02-18T09:48:32.989Z,3.20
2019-02-18T09:49:32.921Z,3.20
2019-02-18T09:50:32.865Z,3.20
2019-02-18T09:51:32.801Z,3.60
2019-02-18T09:52:32.724Z,3.20
2019-02-18T09:53:32.657Z,3.50
2019-02-18T09:54:32.597Z,3.00
2019-02-18T09:55:32.527Z,2.90
2019-02-18T09:56:32.464Z,2.70
2019-02-18T09:57:32.404Z,3.10
2019-02-18T09:58:32.336Z,2.60
2019-02-18T09:59:32.273Z,2.70
2019-02-18T10:00:32.199Z,2.50
2019-02-18T10:01:32.134Z,3.00
2019-02-18T10:02:32.069Z,2.60
2019-02-18T10:03:32.450Z,2.70
2019-02-18T10:04:31.938Z,2.80
2019-02-18T10:05:31.873Z,2.70
2019-02-18T10:06:31.809Z,2.70
2019-02-18T10:07:31.738Z,2.70
2019-02-18T10:08:31.675Z,2.50
2019-02-18T10:09:31.621Z,2.80
2019-02-18T10:10:31.554Z,2.70
2019-02-18T10:11:31.479Z,2.60
2019-02-18T10:12:31.454Z,2.40
2019-02-18T10:13:31.355Z,2.40
2019-02-18T10:14:31.290Z,2.30
2019-02-18T10:15:31.225Z,2.30
2019-02-18T10:16:31.158Z,3.00
2019-02-18T10:17:31.092Z,2.60
2019-02-18T10:18:31.025Z,2.50
2019-02-18T10:19:30.956Z,2.40
2019-02-18T10:20:30.895Z,2.90
2019-02-18T10:21:30.830Z,2.60
2019-02-18T10:22:30.768Z,2.40
2019-02-18T10:23:30.700Z,2.70
2019-02-18T10:24:30.632Z,3.10
2019-02-18T10:25:30.568Z,3.10
2019-02-18T10:26:30.526Z,2.80
2019-02-18T10:27:30.437Z,3.00
2019-02-18T10:28:30.388Z,3.20
2019-02-18T10:29:30.309Z,2.80
2019-02-18T10:30:30.244Z,2.70
2019-02-18T10:31:30.179Z,2.80
2019-02-18T10:32:30.117Z,2.80
2019-02-18T10:33:30.053Z,3.00
2019-02-18T10:34:29.981Z,2.60
2019-02-18T10:35:29.937Z,2.70
2019-02-18T10:36:29.859Z,2.90
2019-02-18T10:37:29.789Z,3.00
2019-02-18T10:38:29.738Z,3.10
2019-02-18T10:39:29.658Z,2.60
2019-02-18T10:40:29.597Z,2.80
2019-02-18T10:41:29.534Z,2.80
2019-02-18T10:42:29.470Z,2.90
2019-02-18T10:43:32.342Z,2.80
2019-02-18T10:44:29.333Z,2.40
2019-02-18T10:45:29.275Z,2.40
2019-02-18T10:46:29.216Z,2.70
2019-02-18T10:47:29.141Z,2.70
2019-02-18T10:48:29.077Z,2.30
2019-02-18T10:49:29.012Z,2.40
2019-02-18T10:50:28.949Z,2.40
2019-02-18T10:51:28.884Z,2.40
2019-02-18T10:52:28.817Z,2.80
2019-02-18T10:53:28.757Z,2.80
2019-02-18T10:54:28.693Z,2.50
2019-02-18T10:55:28.626Z,2.50
2019-02-18T10:56:28.558Z,3.00
2019-02-18T10:57:28.495Z,2.40
2019-02-18T10:58:28.431Z,2.50
2019-02-18T10:59:28.363Z,2.50
2019-02-18T11:00:28.302Z,2.90
2019-02-18T11:01:28.236Z,2.60
2019-02-18T11:02:28.173Z,2.70
2019-02-18T11:03:28.124Z,2.90
2019-02-18T11:04:28.043Z,2.90
2019-02-18T11:05:27.978Z,2.60
2019-02-18T11:06:27.911Z,2.90
2019-02-18T11:07:27.849Z,3.20
2019-02-18T11:08:27.784Z,2.70
2019-02-18T11:09:27.721Z,3.00
2019-02-18T11:10:27.654Z,2.80
2019-02-18T11:11:27.595Z,2.70
2019-02-18T11:12:27.525Z,3.00
2019-02-18T11:13:27.472Z,2.90
2019-02-18T11:14:27.403Z,3.00
2019-02-18T11:15:27.333Z,2.90
2019-02-18T11:16:27.268Z,2.70
2019-02-18T11:17:27.201Z,3.10
2019-02-18T11:18:27.157Z,3.00
2019-02-18T11:19:27.075Z,2.50
2019-02-18T11:20:27.013Z,3.30
2019-02-18T11:21:26.948Z,2.90
2019-02-18T11:22:26.882Z,2.90
2019-02-18T11:23:26.820Z,3.00
2019-02-18T11:24:26.762Z,2.90
2019-02-18T11:25:26.698Z,3.00
2019-02-18T11:26:26.638Z,3.20
2019-02-18T11:27:26.558Z,3.30
2019-02-18T11:28:26.501Z,3.50
2019-02-18T11:29:26.435Z,3.30
2019-02-18T11:30:26.369Z,3.20
2019-02-18T11:31:26.304Z,3.10
2019-02-18T11:32:26.240Z,3.70
2019-02-18T11:33:26.182Z,3.40
2019-02-18T11:34:26.114Z,3.10
2019-02-18T11:35:26.049Z,3.20
2019-02-18T11:36:25.989Z,3.40
2019-02-18T11:37:25.923Z,3.00
2019-02-18T11:38:25.858Z,3.20
2019-02-18T11:39:25.798Z,2.90
2019-02-18T11:40:25.729Z,3.20
2019-02-18T11:41:27.641Z,3.60
2019-02-18T11:42:25.603Z,3.90
2019-02-18T11:43:25.537Z,3.50
2019-02-18T11:44:25.474Z,3.80
2019-02-18T11:45:25.413Z,3.50
2019-02-18T11:46:25.346Z,4.20
2019-02-18T11:47:25.281Z,4.10
2019-02-18T11:48:25.219Z,4.00
2019-02-18T11:49:25.175Z,4.10
2019-02-18T11:50:25.099Z,4.30
2019-02-18T11:51:25.027Z,4.30
2019-02-18T11:52:24.965Z,4.00
2019-02-18T11:53:24.901Z,3.90
2019-02-18T11:54:24.835Z,4.00
2019-02-18T11:55:24.773Z,4.30
2019-02-18T11:56:24.709Z,4.40
2019-02-18T11:57:24.646Z,4.50
2019-02-18T11:58:24.582Z,4.40
2019-02-18T11:59:24.739Z,3.80
2019-02-18T12:00:24.453Z,4.50
2019-02-18T12:01:24.391Z,4.40
2019-02-18T12:02:24.326Z,5.10
2019-02-18T12:03:24.263Z,5.00
2019-02-18T12:04:24.197Z,4.40
2019-02-18T12:05:24.136Z,5.20
2019-02-18T12:06:24.071Z,4.70
2019-02-18T12:07:24.007Z,4.80
2019-02-18T12:08:23.958Z,4.50
2019-02-18T12:09:23.884Z,4.80
2019-02-18T12:10:23.818Z,4.50
2019-02-18T12:11:23.754Z,4.50
2019-02-18T12:12:23.690Z,5.10
2019-02-18T12:13:23.628Z,5.40
2019-02-18T12:14:23.562Z,5.90
2019-02-18T12:15:23.500Z,5.50
2019-02-18T12:16:23.440Z,5.00
2019-02-18T12:17:23.371Z,4.80
2019-02-18T12:18:23.306Z,5.00
2019-02-18T12:19:23.246Z,4.50
2019-02-18T12:20:23.181Z,5.20
2019-02-18T12:21:23.120Z,4.50
2019-02-18T12:22:23.054Z,3.60
2019-02-18T12:23:22.991Z,4.50
2019-02-18T12:24:22.927Z,4.10
2019-02-18T12:25:22.864Z,3.70
2019-02-18T12:26:22.803Z,3.50
2019-02-18T12:27:22.737Z,3.80
2019-02-18T12:28:22.672Z,3.70
2019-02-18T12:29:26.591Z,3.70
2019-02-18T12:30:22.543Z,3.80
2019-02-18T12:31:22.561Z,3.00
2019-02-18T12:32:22.422Z,3.80
2019-02-18T12:33:22.357Z,3.10
2019-02-18T12:34:22.295Z,2.60
2019-02-18T12:35:31.009Z,2.40
2019-02-18T12:36:22.165Z,2.80
2019-02-18T12:37:22.102Z,3.40
2019-02-18T12:38:22.039Z,3.00
2019-02-18T12:39:22.775Z,2.60
2019-02-18T12:40:21.911Z,2.60
2019-02-18T12:41:21.851Z,2.60
2019-02-18T12:42:21.787Z,2.70
2019-02-18T12:43:21.721Z,2.40
2019-02-18T12:44:21.658Z,2.60
2019-02-18T12:45:21.593Z,2.50
2019-02-18T12:46:21.531Z,2.80
2019-02-18T12:47:21.481Z,2.80
2019-02-18T12:48:21.403Z,2.60
2019-02-18T12:49:21.339Z,2.60
2019-02-18T12:50:21.277Z,2.30
2019-02-18T12:51:21.228Z,2.50
2019-02-18T12:52:21.159Z,2.40
2019-02-18T12:53:21.088Z,2.50
2019-02-18T12:54:21.025Z,2.50
2019-02-18T12:55:21.120Z,2.30
2019-02-18T12:56:20.900Z,2.50
2019-02-18T12:57:20.836Z,2.50
2019-02-18T12:58:20.773Z,2.60
2019-02-18T12:59:20.710Z,2.70
2019-02-18T13:00:20.646Z,2.60
2019-02-18T13:01:20.589Z,2.40
2019-02-18T13:02:20.530Z,2.70
2019-02-18T13:03:20.456Z,2.40
2019-02-18T13:04:20.394Z,2.50
2019-02-18T13:05:20.330Z,2.20
2019-02-18T13:06:20.267Z,2.50
2019-02-18T13:07:20.205Z,2.30
2019-02-18T13:08:20.142Z,2.40
2019-02-18T13:09:20.078Z,2.40
2019-02-18T13:10:20.016Z,2.30
2019-02-18T13:11:19.954Z,2.40
2019-02-18T13:12:19.888Z,2.30
2019-02-18T13:13:19.825Z,2.80
2019-02-18T13:14:19.768Z,2.40
2019-02-18T13:15:19.699Z,2.30
2019-02-18T13:16:19.635Z,2.70
2019-02-18T13:17:19.576Z,2.50